createdAt,value
2018-02-24T00:01:25.286Z,22.30
2018-02-24T00:03:52.828Z,23.83
2018-02-24T00:06:20.353Z,25.00
2018-02-24T00:08:48.693Z,22.20
2018-02-24T00:11:16.243Z,21.23
2018-02-24T00:13:43.824Z,23.12
2018-02-24T00:16:11.388Z,22.35
2018-02-24T00:18:38.945Z,15.88
2018-02-24T00:21:06.479Z,19.73
2018-02-24T00:23:34.030Z,20.25
2018-02-24T00:26:01.556Z,22.98
2018-02-24T00:28:29.873Z,21.83
2018-02-24T00:30:57.427Z,22.42
2018-02-24T00:33:24.942Z,23.50
2018-02-24T00:35:52.511Z,22.83
2018-02-24T00:38:20.825Z,21.75
2018-02-24T00:40:48.387Z,20.80
2018-02-24T00:43:15.924Z,21.80
2018-02-24T00:45:43.766Z,21.45
2018-02-24T00:48:12.089Z,23.92
2018-02-24T00:50:39.637Z,18.83
2018-02-24T00:53:07.173Z,22.08
2018-02-24T00:55:35.491Z,22.08
2018-02-24T00:58:03.042Z,21.33
2018-02-24T01:00:30.579Z,20.67
2018-02-24T01:02:58.142Z,24.87
2018-02-24T01:05:25.688Z,18.75
2018-02-24T01:07:54.019Z,21.75
2018-02-24T01:10:21.584Z,23.45
2018-02-24T01:12:49.140Z,23.25
2018-02-24T01:15:16.698Z,22.23
2018-02-24T01:17:44.221Z,22.52
2018-02-24T01:20:11.775Z,20.73
2018-02-24T01:22:39.331Z,23.83
2018-02-24T01:25:06.870Z,18.87
2018-02-24T01:27:34.447Z,22.52
2018-02-24T01:30:01.998Z,22.13
2018-02-24T01:32:30.300Z,22.37
2018-02-24T01:34:57.874Z,22.15
2018-02-24T01:37:25.410Z,22.37
2018-02-24T01:39:52.974Z,24.50
2018-02-24T01:42:20.524Z,20.02
2018-02-24T01:44:48.042Z,23.20
2018-02-24T01:47:15.588Z,23.02
2018-02-24T01:49:43.123Z,22.48
2018-02-24T01:52:10.683Z,22.00
2018-02-24T01:54:38.229Z,22.33
2018-02-24T01:57:05.793Z,21.95
2018-02-24T01:59:33.326Z,24.87
2018-02-24T02:02:01.655Z,23.52
2018-02-24T02:04:29.175Z,27.20
2018-02-24T02:06:56.694Z,23.38
2018-02-24T02:09:24.259Z,22.30
2018-02-24T02:11:51.793Z,21.70
2018-02-24T02:14:19.350Z,25.42
2018-02-24T02:16:46.883Z,22.65
2018-02-24T02:19:14.412Z,24.92
2018-02-24T02:21:42.758Z,25.00
2018-02-24T02:24:10.308Z,24.00
2018-02-24T02:26:37.846Z,18.10
2018-02-24T02:29:05.391Z,22.85
2018-02-24T02:31:32.911Z,23.95
2018-02-24T02:34:00.463Z,25.52
2018-02-24T02:36:28.056Z,24.35
2018-02-24T02:38:55.622Z,26.02
2018-02-24T02:41:23.154Z,25.17
2018-02-24T02:43:51.502Z,26.85
2018-02-24T02:46:19.043Z,24.60
2018-02-24T02:48:46.600Z,22.30
2018-02-24T02:51:14.160Z,23.17
2018-02-24T02:53:41.699Z,26.83
2018-02-24T02:56:09.237Z,25.88
2018-02-24T02:58:37.555Z,23.17
2018-02-24T03:01:05.098Z,22.92
2018-02-24T03:03:32.633Z,23.23
2018-02-24T03:06:00.954Z,22.77
2018-02-24T03:08:28.513Z,19.67
2018-02-24T03:10:56.057Z,24.20
2018-02-24T03:13:23.605Z,26.45
2018-02-24T03:15:51.407Z,22.00
2018-02-24T03:18:19.763Z,27.08
2018-02-24T03:20:47.319Z,23.80
2018-02-24T03:23:14.880Z,20.25
2018-02-24T03:25:42.407Z,23.92
2018-02-24T03:28:10.720Z,25.92
2018-02-24T03:30:38.255Z,15.32
2018-02-24T03:33:05.814Z,25.65
2018-02-24T03:35:33.393Z,24.45
2018-02-24T03:38:00.911Z,17.62
2018-02-24T03:40:28.431Z,21.35
2018-02-24T03:42:55.996Z,22.70
2018-02-24T03:45:23.537Z,22.58
2018-02-24T03:47:51.050Z,24.85
2018-02-24T03:50:19.382Z,20.25
2018-02-24T03:52:46.945Z,19.48
2018-02-24T03:55:14.470Z,21.17
2018-02-24T03:57:42.033Z,23.73
2018-02-24T04:00:09.575Z,15.27
2018-02-24T04:02:37.884Z,15.63
2018-02-24T04:05:05.430Z,21.65
2018-02-24T04:07:32.956Z,21.50
2018-02-24T04:10:02.314Z,22.35
2018-02-24T04:12:29.847Z,24.95
2018-02-24T04:14:57.413Z,23.67
2018-02-24T04:17:24.964Z,16.42
2018-02-24T04:19:52.512Z,20.30
2018-02-24T04:22:20.796Z,23.70
2018-02-24T04:24:48.348Z,20.12
2018-02-24T04:27:15.866Z,23.23
2018-02-24T04:29:43.430Z,22.80
2018-02-24T04:32:10.958Z,23.98
2018-02-24T04:34:38.500Z,23.60
2018-02-24T04:37:06.044Z,18.30
2018-02-24T04:39:33.570Z,24.30
2018-02-24T04:42:01.122Z,26.27
2018-02-24T04:44:28.686Z,25.23
2018-02-24T04:46:56.242Z,26.35
2018-02-24T04:49:23.776Z,27.50
2018-02-24T04:51:51.324Z,23.60
2018-02-24T04:54:18.839Z,21.73
2018-02-24T04:56:46.390Z,26.60
2018-02-24T04:59:13.945Z,24.70
2018-02-24T05:01:41.489Z,28.10
2018-02-24T05:04:09.038Z,25.62
2018-02-24T05:06:36.566Z,30.33
2018-02-24T05:09:04.138Z,29.20
2018-02-24T05:11:31.688Z,30.80
2018-02-24T05:13:59.247Z,28.73
2018-02-24T05:16:26.789Z,27.80
2018-02-24T05:18:54.458Z,29.90
2018-02-24T05:21:22.002Z,28.15
2018-02-24T05:23:50.291Z,29.58
2018-02-24T05:26:17.837Z,29.48
2018-02-24T05:28:46.136Z,31.95
2018-02-24T05:31:13.698Z,28.33
2018-02-24T05:33:41.233Z,27.25
2018-02-24T05:36:09.558Z,29.75
2018-02-24T05:38:37.086Z,30.30
2018-02-24T05:41:04.647Z,30.33
2018-02-24T05:43:32.213Z,24.60
2018-02-24T05:45:59.733Z,28.92
2018-02-24T05:48:27.286Z,30.83
2018-02-24T05:50:54.818Z,26.37
2018-02-24T05:53:22.368Z,31.23
2018-02-24T05:55:49.904Z,31.30
2018-02-24T05:58:17.460Z,31.08
2018-02-24T06:00:45.025Z,28.48
2018-02-24T06:03:12.590Z,29.80
2018-02-24T06:05:40.118Z,24.08
2018-02-24T06:08:08.446Z,28.33
2018-02-24T06:10:35.974Z,28.85
2018-02-24T06:13:03.503Z,29.65
2018-02-24T06:15:31.050Z,28.35
2018-02-24T06:17:58.612Z,28.98
2018-02-24T06:20:26.180Z,25.35
2018-02-24T06:22:53.711Z,27.15
2018-02-24T06:25:21.294Z,28.67
2018-02-24T06:27:48.839Z,29.48
2018-02-24T06:30:16.420Z,25.62
2018-02-24T06:32:44.784Z,28.55
2018-02-24T06:35:12.319Z,26.42
2018-02-24T06:37:39.871Z,28.38
2018-02-24T06:40:07.432Z,26.65
2018-02-24T06:42:34.980Z,27.85
2018-02-24T06:45:02.508Z,28.08
2018-02-24T06:47:30.820Z,25.08
2018-02-24T06:49:58.356Z,28.00
2018-02-24T06:52:25.910Z,24.30
2018-02-24T06:54:54.211Z,25.20
2018-02-24T06:57:21.770Z,26.00
2018-02-24T06:59:49.287Z,24.12
2018-02-24T07:02:17.581Z,18.45
2018-02-24T07:04:45.896Z,27.60
2018-02-24T07:07:13.422Z,18.37
2018-02-24T07:09:40.966Z,25.02
2018-02-24T07:12:09.283Z,23.65
2018-02-24T07:14:36.831Z,26.15
2018-02-24T07:17:04.359Z,25.73
2018-02-24T07:19:32.697Z,21.58
2018-02-24T07:22:00.267Z,27.33
2018-02-24T07:24:27.802Z,20.98
2018-02-24T07:26:55.355Z,24.75
2018-02-24T07:29:22.898Z,19.48
2018-02-24T07:31:50.454Z,24.00
2018-02-24T07:34:18.014Z,25.62
2018-02-24T07:36:45.568Z,24.92
2018-02-24T07:39:13.129Z,22.70
2018-02-24T07:41:40.683Z,23.17
2018-02-24T07:44:09.009Z,19.92
2018-02-24T07:46:36.557Z,24.40
2018-02-24T07:49:04.082Z,28.30
2018-02-24T07:51:31.634Z,21.00
2018-02-24T07:53:59.964Z,22.70
2018-02-24T07:56:27.477Z,21.48
2018-02-24T07:58:55.792Z,23.67
2018-02-24T08:01:23.360Z,25.00
2018-02-24T08:03:50.907Z,22.15
2018-02-24T08:06:18.458Z,23.33
2018-02-24T08:08:46.044Z,21.87
2018-02-24T08:11:13.566Z,22.77
2018-02-24T08:13:41.091Z,24.35
2018-02-24T08:16:08.662Z,23.50
2018-02-24T08:18:37.049Z,22.87
2018-02-24T08:21:04.612Z,23.05
2018-02-24T08:23:32.139Z,21.55
2018-02-24T08:25:59.681Z,20.73
2018-02-24T08:28:27.203Z,23.02
2018-02-24T08:30:54.756Z,21.80
2018-02-24T08:33:22.320Z,21.35
2018-02-24T08:35:49.881Z,24.08
2018-02-24T08:38:17.409Z,21.77
2018-02-24T08:40:45.708Z,22.37
2018-02-24T08:43:13.251Z,21.77
2018-02-24T08:45:41.570Z,20.35
2018-02-24T08:48:09.124Z,21.70
2018-02-24T08:50:36.686Z,21.15
2018-02-24T08:53:04.248Z,21.77
2018-02-24T08:55:31.776Z,13.85
2018-02-24T08:57:59.325Z,15.05
2018-02-24T09:00:27.640Z,21.62
2018-02-24T09:02:55.185Z,21.12
2018-02-24T09:05:22.737Z,9.18
2018-02-24T09:07:50.268Z,21.95
2018-02-24T09:10:18.600Z,22.90
2018-02-24T09:12:46.133Z,20.02
2018-02-24T09:15:14.029Z,23.05
2018-02-24T09:17:41.557Z,17.40
2018-02-24T09:20:09.107Z,23.58
2018-02-24T09:22:37.414Z,18.55
2018-02-24T09:25:04.965Z,22.08
2018-02-24T09:27:32.528Z,20.90
2018-02-24T09:30:00.054Z,17.87
2018-02-24T09:32:28.371Z,19.95
2018-02-24T09:34:55.905Z,22.92
2018-02-24T09:37:23.540Z,15.52
2018-02-24T09:39:51.856Z,20.45
2018-02-24T09:42:19.404Z,22.50
2018-02-24T09:44:46.938Z,25.60
2018-02-24T09:47:15.256Z,22.23
2018-02-24T09:49:42.814Z,22.15
2018-02-24T09:52:10.406Z,21.42
2018-02-24T09:54:37.943Z,21.35
2018-02-24T09:57:05.501Z,20.70
2018-02-24T09:59:33.047Z,18.02
2018-02-24T10:02:00.575Z,23.05
2018-02-24T10:04:28.915Z,18.70
2018-02-24T10:06:56.451Z,26.08
2018-02-24T10:09:24.034Z,17.30
2018-02-24T10:11:51.569Z,24.67
2018-02-24T10:14:19.102Z,24.12
2018-02-24T10:16:47.424Z,24.67
2018-02-24T10:19:14.959Z,19.52
2018-02-24T10:21:42.513Z,24.05
2018-02-24T10:24:10.053Z,21.10
2018-02-24T10:26:38.467Z,25.58
2018-02-24T10:29:06.025Z,24.95
2018-02-24T10:31:33.582Z,21.33
2018-02-24T10:34:01.173Z,15.77
2018-02-24T10:36:28.668Z,18.00
2018-02-24T10:38:56.997Z,27.40
2018-02-24T10:41:24.517Z,26.98
2018-02-24T10:43:52.471Z,29.10
2018-02-24T10:46:20.766Z,23.73
2018-02-24T10:48:48.306Z,32.33
2018-02-24T10:51:16.604Z,24.00
2018-02-24T10:53:44.158Z,22.87
2018-02-24T10:56:11.705Z,24.00
2018-02-24T10:58:40.036Z,17.30
2018-02-24T11:01:07.562Z,22.75
2018-02-24T11:03:35.197Z,24.15
2018-02-24T11:06:03.518Z,17.30
2018-02-24T11:08:31.052Z,23.92
2018-02-24T11:10:58.898Z,23.10
2018-02-24T11:13:27.214Z,24.73
2018-02-24T11:15:54.792Z,28.12
2018-02-24T11:18:22.336Z,23.42
2018-02-24T11:20:49.910Z,23.80
2018-02-24T11:23:17.451Z,21.05
2018-02-24T11:25:44.979Z,24.77
2018-02-24T11:28:13.300Z,25.62
2018-02-24T11:30:40.835Z,25.00
2018-02-24T11:33:08.378Z,24.60
2018-02-24T11:35:36.672Z,22.90
2018-02-24T11:38:04.223Z,21.25
2018-02-24T11:40:31.758Z,18.40
2018-02-24T11:43:00.110Z,18.37
2018-02-24T11:45:28.431Z,21.80
2018-02-24T11:47:55.960Z,17.17
2018-02-24T11:50:23.492Z,23.70
2018-02-24T11:52:51.034Z,19.85
2018-02-24T11:55:18.591Z,20.55
2018-02-24T11:57:46.115Z,18.58
2018-02-24T12:00:14.457Z,16.98
2018-02-24T12:02:42.007Z,15.77
2018-02-24T12:05:09.556Z,19.75
2018-02-24T12:07:37.077Z,18.15
2018-02-24T12:10:04.631Z,17.10
2018-02-24T12:12:32.930Z,15.50
2018-02-24T12:15:00.463Z,16.85
2018-02-24T12:17:28.773Z,15.27
2018-02-24T12:19:56.303Z,12.82
2018-02-24T12:22:24.623Z,16.48
2018-02-24T12:24:52.172Z,14.23
2018-02-24T12:27:19.727Z,13.73
2018-02-24T12:29:47.260Z,17.48
2018-02-24T12:32:15.580Z,18.45
2018-02-24T12:34:43.121Z,17.35
2018-02-24T12:37:10.647Z,16.08
2018-02-24T12:39:38.962Z,14.75
2018-02-24T12:42:06.510Z,22.23
2018-02-24T12:44:34.086Z,13.02
2018-02-24T12:47:01.665Z,18.17
2018-02-24T12:49:29.226Z,16.33
2018-02-24T12:51:56.753Z,19.17
2018-02-24T12:54:24.297Z,19.45
2018-02-24T12:56:51.850Z,19.75
2018-02-24T12:59:19.413Z,18.83
2018-02-24T13:01:46.972Z,18.60
2018-02-24T13:04:14.527Z,17.55
2018-02-24T13:06:42.071Z,8.65
2018-02-24T13:09:10.370Z,20.48
2018-02-24T13:11:37.927Z,16.08
2018-02-24T13:14:05.454Z,18.62
2018-02-24T13:16:33.027Z,15.18
2018-02-24T13:19:01.339Z,18.17
2018-02-24T13:21:28.896Z,20.75
2018-02-24T13:23:56.417Z,18.00
2018-02-24T13:26:23.960Z,17.75
2018-02-24T13:28:51.514Z,19.27
2018-02-24T13:31:19.814Z,18.62
2018-02-24T13:33:48.126Z,16.55
2018-02-24T13:36:15.646Z,15.60
2018-02-24T13:38:43.212Z,16.85
2018-02-24T13:41:11.514Z,18.95
2018-02-24T13:43:39.101Z,18.00
2018-02-24T13:46:06.643Z,19.20
2018-02-24T13:48:34.186Z,14.48
2018-02-24T13:51:02.495Z,16.50
2018-02-24T13:53:30.035Z,17.40
2018-02-24T13:55:57.601Z,18.77
2018-02-24T13:58:25.146Z,17.02
2018-02-24T14:00:52.700Z,17.70
2018-02-24T14:03:20.265Z,15.70
2018-02-24T14:05:47.845Z,19.42
2018-02-24T14:08:15.379Z,15.93
2018-02-24T14:10:42.935Z,18.73
2018-02-24T14:13:11.245Z,13.02
2018-02-24T14:15:38.770Z,13.73
2018-02-24T14:18:07.090Z,15.25
2018-02-24T14:20:34.643Z,10.82
2018-02-24T14:23:02.230Z,16.35
2018-02-24T14:25:31.003Z,17.65
2018-02-24T14:27:59.297Z,17.15
2018-02-24T14:30:28.088Z,13.85
2018-02-24T14:32:55.630Z,14.10
2018-02-24T14:35:25.095Z,17.75
2018-02-24T14:37:52.632Z,16.73
2018-02-24T14:40:20.939Z,17.90
2018-02-24T14:42:48.495Z,18.62
2018-02-24T14:45:16.046Z,11.10
2018-02-24T14:47:43.583Z,15.43
2018-02-24T14:50:11.908Z,15.25
2018-02-24T14:52:39.425Z,14.65
2018-02-24T14:55:12.251Z,15.73
2018-02-24T14:57:39.819Z,12.30
2018-02-24T15:00:07.591Z,16.30
2018-02-24T15:02:35.618Z,16.62
2018-02-24T15:05:04.290Z,16.08
2018-02-24T15:07:31.966Z,16.20
2018-02-24T15:09:59.724Z,15.73
2018-02-24T15:12:27.288Z,16.00
2018-02-24T15:14:55.051Z,13.32
2018-02-24T15:17:22.617Z,14.02
2018-02-24T15:19:50.142Z,15.07
2018-02-24T15:22:17.695Z,15.38
2018-02-24T15:24:45.230Z,8.98
2018-02-24T15:27:12.753Z,13.75
2018-02-24T15:29:40.307Z,14.65
2018-02-24T15:32:07.827Z,14.77
2018-02-24T15:34:35.377Z,14.32
2018-02-24T15:37:02.912Z,13.30
2018-02-24T15:39:30.479Z,14.50
2018-02-24T15:41:58.012Z,9.75
2018-02-24T15:44:25.555Z,12.82
2018-02-24T15:46:53.854Z,13.85
2018-02-24T15:49:21.428Z,9.20
2018-02-24T15:51:49.580Z,12.05
2018-02-24T15:54:17.112Z,12.00
2018-02-24T15:56:45.443Z,10.45
2018-02-24T15:59:12.993Z,11.55
2018-02-24T16:01:40.551Z,11.80
2018-02-24T16:04:08.093Z,11.52
2018-02-24T16:06:35.647Z,12.05
2018-02-24T16:09:03.162Z,9.75
2018-02-24T16:11:30.712Z,9.98
2018-02-24T16:13:58.231Z,11.45
2018-02-24T16:16:25.752Z,9.75
2018-02-24T16:18:53.296Z,11.20
2018-02-24T16:21:20.838Z,10.52
2018-02-24T16:23:48.379Z,11.18
2018-02-24T16:26:15.900Z,10.70
2018-02-24T16:28:44.328Z,9.98
2018-02-24T16:31:11.939Z,12.23
2018-02-24T16:33:39.494Z,11.20
2018-02-24T16:36:07.795Z,11.30
2018-02-24T16:38:35.334Z,11.25
2018-02-24T16:41:03.624Z,7.35
2018-02-24T16:43:31.179Z,10.35
2018-02-24T16:45:59.505Z,11.63
2018-02-24T16:48:27.033Z,9.50
2018-02-24T16:50:54.591Z,11.20
2018-02-24T16:53:22.140Z,10.85
2018-02-24T16:55:49.675Z,12.07
2018-02-24T16:58:17.231Z,10.80
2018-02-24T17:00:44.847Z,10.93
2018-02-24T17:03:12.386Z,11.30
2018-02-24T17:05:39.908Z,11.60
2018-02-24T17:08:07.458Z,10.95
2018-02-24T17:10:34.977Z,9.90
2018-02-24T17:13:02.527Z,10.10
2018-02-24T17:15:30.042Z,9.18
2018-02-24T17:17:57.591Z,12.77
2018-02-24T17:20:25.103Z,9.35
2018-02-24T17:22:52.653Z,12.20
2018-02-24T17:25:20.219Z,11.18
2018-02-24T17:27:47.770Z,10.90
2018-02-24T17:30:15.324Z,10.45
2018-02-24T17:32:43.620Z,9.63
2018-02-24T17:35:11.181Z,8.32
2018-02-24T17:37:38.735Z,10.75
2018-02-24T17:40:06.273Z,8.60
2018-02-24T17:42:34.666Z,11.05
2018-02-24T17:45:02.300Z,9.30
2018-02-24T17:47:29.851Z,11.35
2018-02-24T17:49:57.393Z,10.15
2018-02-24T17:52:24.965Z,11.80
2018-02-24T17:54:52.499Z,18.00
2018-02-24T17:57:20.053Z,10.25
2018-02-24T17:59:47.616Z,9.63
2018-02-24T18:02:15.926Z,10.07
2018-02-24T18:04:43.461Z,9.60
2018-02-24T18:07:10.997Z,9.93
2018-02-24T18:09:38.548Z,11.35
2018-02-24T18:12:06.111Z,8.88
2018-02-24T18:14:33.638Z,9.60
2018-02-24T18:17:01.938Z,10.73
2018-02-24T18:19:29.503Z,9.63
2018-02-24T18:21:57.225Z,10.50
2018-02-24T18:24:25.073Z,9.70
2018-02-24T18:26:52.601Z,10.05
2018-02-24T18:29:20.162Z,9.82
2018-02-24T18:31:47.705Z,10.52
2018-02-24T18:34:15.292Z,10.70
2018-02-24T18:36:42.818Z,10.90
2018-02-24T18:39:10.356Z,11.35
2018-02-24T18:41:38.660Z,11.50
2018-02-24T18:44:06.186Z,11.00
2018-02-24T18:46:34.527Z,12.23
2018-02-24T18:49:02.078Z,11.25
2018-02-24T18:51:29.635Z,12.60
2018-02-24T18:53:57.178Z,12.68
2018-02-24T18:56:24.714Z,8.27
2018-02-24T18:58:53.026Z,10.90
2018-02-24T19:01:20.578Z,12.00
2018-02-24T19:03:48.359Z,9.90
2018-02-24T19:06:15.897Z,8.35
2018-02-24T19:08:43.443Z,10.25
2018-02-24T19:11:10.990Z,11.95
2018-02-24T19:13:39.304Z,11.15
2018-02-24T19:16:06.928Z,12.60
2018-02-24T19:18:35.260Z,11.70
2018-02-24T19:21:02.802Z,12.02
2018-02-24T19:23:30.360Z,8.98
2018-02-24T19:25:57.901Z,11.90
2018-02-24T19:28:25.415Z,12.52
2018-02-24T19:30:52.973Z,10.80
2018-02-24T19:33:20.532Z,11.52
2018-02-24T19:35:48.114Z,12.70
2018-02-24T19:38:16.420Z,11.68
2018-02-24T19:40:44.525Z,8.73
2018-02-24T19:43:12.875Z,8.70
2018-02-24T19:45:40.414Z,9.43
2018-02-24T19:48:08.700Z,10.88
2018-02-24T19:50:36.285Z,12.40
2018-02-24T19:53:03.823Z,11.63
2018-02-24T19:55:31.400Z,11.93
2018-02-24T19:57:58.938Z,13.00
2018-02-24T20:00:26.468Z,12.50
2018-02-24T20:02:54.012Z,11.35
2018-02-24T20:05:21.556Z,10.55
2018-02-24T20:07:49.118Z,10.75
2018-02-24T20:10:16.650Z,5.30
2018-02-24T20:12:44.209Z,10.65
2018-02-24T20:15:11.741Z,9.02
2018-02-24T20:17:39.274Z,7.32
2018-02-24T20:20:06.822Z,8.50
2018-02-24T20:22:34.359Z,9.05
2018-02-24T20:25:01.930Z,5.90
2018-02-24T20:27:29.881Z,9.45
2018-02-24T20:29:58.270Z,6.32
2018-02-24T20:32:25.820Z,8.30
2018-02-24T20:34:53.400Z,10.65
2018-02-24T20:37:20.927Z,8.93
2018-02-24T20:39:48.464Z,6.87
2018-02-24T20:42:16.782Z,7.57
2018-02-24T20:44:44.336Z,8.38
2018-02-24T20:47:11.885Z,6.80
2018-02-24T20:49:39.426Z,8.10
2018-02-24T20:52:06.963Z,6.47
2018-02-24T20:54:35.257Z,6.60
2018-02-24T20:57:02.811Z,6.97
2018-02-24T20:59:31.113Z,8.82
2018-02-24T21:01:58.655Z,7.40
2018-02-24T21:04:26.175Z,5.60
2018-02-24T21:06:53.720Z,8.82
2018-02-24T21:09:21.276Z,7.32
2018-02-24T21:11:48.811Z,5.40
2018-02-24T21:14:17.774Z,5.10
2018-02-24T21:16:46.066Z,7.87
2018-02-24T21:19:13.597Z,8.63
2018-02-24T21:21:41.879Z,8.73
2018-02-24T21:24:10.193Z,7.95
2018-02-24T21:26:37.714Z,5.40
2018-02-24T21:29:05.999Z,5.95
2018-02-24T21:31:34.301Z,7.97
2018-02-24T21:34:01.837Z,6.25
2018-02-24T21:36:30.149Z,8.23
2018-02-24T21:38:57.688Z,7.93
2018-02-24T21:41:25.248Z,8.20
2018-02-24T21:43:52.801Z,8.73
2018-02-24T21:46:20.356Z,6.00
2018-02-24T21:48:47.904Z,5.00
2018-02-24T21:51:16.224Z,8.27
2018-02-24T21:53:43.760Z,6.97
2018-02-24T21:56:11.355Z,7.37
2018-02-24T21:58:38.949Z,7.85
2018-02-24T22:01:07.397Z,7.45
2018-02-24T22:03:35.011Z,7.90
2018-02-24T22:06:03.286Z,7.62
2018-02-24T22:08:31.600Z,6.55
2018-02-24T22:10:59.124Z,5.97
2018-02-24T22:13:26.678Z,5.55
2018-02-24T22:15:54.985Z,5.15
2018-02-24T22:18:22.537Z,7.87
2018-02-24T22:20:50.100Z,5.35
2018-02-24T22:23:17.635Z,6.72
2018-02-24T22:25:45.951Z,4.10
2018-02-24T22:28:13.485Z,3.50
2018-02-24T22:30:41.018Z,4.82
2018-02-24T22:33:09.303Z,5.68
2018-02-24T22:35:37.611Z,5.43
2018-02-24T22:38:05.147Z,4.90
2018-02-24T22:40:32.681Z,5.85
2018-02-24T22:43:00.197Z,7.50
2018-02-24T22:45:27.711Z,5.87
2018-02-24T22:48:01.656Z,5.57
2018-02-24T22:50:29.195Z,4.05
2018-02-24T22:52:56.769Z,2.65
2018-02-24T22:55:24.312Z,4.12
2018-02-24T22:57:51.859Z,6.55
2018-02-24T23:00:20.162Z,3.72
2018-02-24T23:02:47.701Z,4.87
2018-02-24T23:05:15.230Z,4.30
2018-02-24T23:07:42.765Z,4.62
2018-02-24T23:10:10.309Z,3.35
2018-02-24T23:12:37.843Z,4.50
2018-02-24T23:15:05.397Z,5.80
2018-02-24T23:17:32.917Z,4.80
2018-02-24T23:20:00.451Z,5.50
2018-02-24T23:22:27.988Z,5.85
2018-02-24T23:24:55.515Z,4.30
2018-02-24T23:27:23.815Z,5.80
2018-02-24T23:29:51.394Z,6.00
2018-02-24T23:32:18.928Z,4.65
2018-02-24T23:34:46.462Z,4.50
2018-02-24T23:37:14.792Z,3.00
2018-02-24T23:39:42.312Z,5.37
2018-02-24T23:42:10.790Z,5.32
2018-02-24T23:44:38.287Z,5.00
2018-02-24T23:47:05.825Z,5.62
2018-02-24T23:49:33.360Z,4.47
2018-02-24T23:52:01.684Z,3.62
2018-02-24T23:54:29.210Z,5.72
2018-02-24T23:56:57.537Z,4.35
2018-02-24T23:59:25.051Z,5.32
